sensor_id;sensor_type;location;lat;lon;timestamp;P1;durP1;ratioP1;P2;durP2;ratioP2
23743;SDS011;12052;53.478;10.182;2023-02-21T00:02:20;4.53;;;2.42;;
23743;SDS011;12052;53.478;10.182;2023-02-21T00:05:04;10.30;;;2.55;;
23743;SDS011;12052;53.478;10.182;2023-02-21T00:07:51;7.03;;;2.15;;
23743;SDS011;12052;53.478;10.182;2023-02-21T00:10:36;4.70;;;1.83;;
23743;SDS011;12052;53.478;10.182;2023-02-21T00:13:20;4.70;;;1.50;;
23743;SDS011;12052;53.478;10.182;2023-02-21T00:16:06;4.70;;;1.80;;
23743;SDS011;12052;53.478;10.182;2023-02-21T00:18:51;2.28;;;1.15;;
23743;SDS011;12052;53.478;10.182;2023-02-21T00:21:35;7.88;;;1.73;;
23743;SDS011;12052;53.478;10.182;2023-02-21T00:24:22;5.25;;;1.40;;
23743;SDS011;12052;53.478;10.182;2023-02-21T00:27:07;2.22;;;1.10;;
23743;SDS011;12052;53.478;10.182;2023-02-21T00:29:53;4.43;;;1.20;;
23743;SDS011;12052;53.478;10.182;2023-02-21T00:32:41;1.27;;;0.90;;
23743;SDS011;12052;53.478;10.182;2023-02-21T00:35:25;2.70;;;0.98;;
23743;SDS011;12052;53.478;10.182;2023-02-21T00:38:10;2.40;;;0.90;;
23743;SDS011;12052;53.478;10.182;2023-02-21T00:40:54;1.25;;;0.60;;
23743;SDS011;12052;53.478;10.182;2023-02-21T00:43:39;2.63;;;0.80;;
23743;SDS011;12052;53.478;10.182;2023-02-21T00:46:24;2.10;;;0.70;;
23743;SDS011;12052;53.478;10.182;2023-02-21T00:49:09;4.97;;;0.73;;
23743;SDS011;12052;53.478;10.182;2023-02-21T00:51:54;2.00;;;0.68;;
23743;SDS011;12052;53.478;10.182;2023-02-21T00:54:43;2.90;;;0.70;;
23743;SDS011;12052;53.478;10.182;2023-02-21T00:57:28;2.15;;;0.60;;
23743;SDS011;12052;53.478;10.182;2023-02-21T01:00:18;2.53;;;0.65;;
23743;SDS011;12052;53.478;10.182;2023-02-21T01:03:04;4.90;;;0.70;;
23743;SDS011;12052;53.478;10.182;2023-02-21T01:05:52;1.38;;;0.73;;
23743;SDS011;12052;53.478;10.182;2023-02-21T01:08:43;3.40;;;0.70;;
23743;SDS011;12052;53.478;10.182;2023-02-21T01:11:32;1.63;;;0.93;;
23743;SDS011;12052;53.478;10.182;2023-02-21T01:14:17;1.02;;;0.65;;
23743;SDS011;12052;53.478;10.182;2023-02-21T01:17:07;0.70;;;0.63;;
23743;SDS011;12052;53.478;10.182;2023-02-21T01:19:51;2.78;;;0.80;;
23743;SDS011;12052;53.478;10.182;2023-02-21T01:22:38;3.03;;;0.80;;
23743;SDS011;12052;53.478;10.182;2023-02-21T01:25:25;1.83;;;0.68;;
23743;SDS011;12052;53.478;10.182;2023-02-21T01:28:12;2.55;;;0.82;;
23743;SDS011;12052;53.478;10.182;2023-02-21T01:30:56;3.33;;;0.90;;
23743;SDS011;12052;53.478;10.182;2023-02-21T01:33:40;2.47;;;0.88;;
23743;SDS011;12052;53.478;10.182;2023-02-21T01:36:26;1.13;;;0.80;;
23743;SDS011;12052;53.478;10.182;2023-02-21T01:39:13;0.80;;;0.80;;
23743;SDS011;12052;53.478;10.182;2023-02-21T01:41:58;4.72;;;0.60;;
23743;SDS011;12052;53.478;10.182;2023-02-21T01:44:43;0.93;;;0.60;;
23743;SDS011;12052;53.478;10.182;2023-02-21T01:47:32;2.58;;;0.60;;
23743;SDS011;12052;53.478;10.182;2023-02-21T01:50:18;1.20;;;0.68;;
23743;SDS011;12052;53.478;10.182;2023-02-21T01:53:07;6.05;;;0.90;;
23743;SDS011;12052;53.478;10.182;2023-02-21T01:55:55;5.47;;;0.88;;
23743;SDS011;12052;53.478;10.182;2023-02-21T01:58:42;4.28;;;1.10;;
23743;SDS011;12052;53.478;10.182;2023-02-21T02:01:31;1.50;;;0.75;;
23743;SDS011;12052;53.478;10.182;2023-02-21T02:04:20;2.40;;;1.00;;
23743;SDS011;12052;53.478;10.182;2023-02-21T02:07:07;4.40;;;1.02;;
23743;SDS011;12052;53.478;10.182;2023-02-21T02:09:52;4.95;;;0.93;;
23743;SDS011;12052;53.478;10.182;2023-02-21T02:12:49;4.57;;;0.82;;
23743;SDS011;12052;53.478;10.182;2023-02-21T02:18:56;3.45;;;1.10;;
23743;SDS011;12052;53.478;10.182;2023-02-21T02:24:35;3.00;;;1.20;;
23743;SDS011;12052;53.478;10.182;2023-02-21T02:33:07;6.38;;;1.27;;
23743;SDS011;12052;53.478;10.182;2023-02-21T02:35:53;3.20;;;1.40;;
23743;SDS011;12052;53.478;10.182;2023-02-21T02:42:10;2.00;;;1.20;;
23743;SDS011;12052;53.478;10.182;2023-02-21T02:44:36;2.65;;;0.77;;
23743;SDS011;12052;53.478;10.182;2023-02-21T02:47:03;4.35;;;0.95;;
23743;SDS011;12052;53.478;10.182;2023-02-21T02:49:35;1.23;;;0.63;;
23743;SDS011;12052;53.478;10.182;2023-02-21T02:52:10;1.25;;;0.77;;
23743;SDS011;12052;53.478;10.182;2023-02-21T02:54:40;5.07;;;0.80;;
23743;SDS011;12052;53.478;10.182;2023-02-21T02:57:18;0.80;;;0.70;;
23743;SDS011;12052;53.478;10.182;2023-02-21T03:00:05;1.50;;;0.90;;
23743;SDS011;12052;53.478;10.182;2023-02-21T03:02:42;1.85;;;1.00;;
23743;SDS011;12052;53.478;10.182;2023-02-21T03:05:26;0.90;;;0.85;;
23743;SDS011;12052;53.478;10.182;2023-02-21T03:10:47;1.58;;;0.98;;
23743;SDS011;12052;53.478;10.182;2023-02-21T03:13:23;1.60;;;1.00;;
23743;SDS011;12052;53.478;10.182;2023-02-21T03:16:05;8.10;;;1.10;;
23743;SDS011;12052;53.478;10.182;2023-02-21T03:21:27;6.78;;;1.10;;
23743;SDS011;12052;53.478;10.182;2023-02-21T03:24:00;4.95;;;0.80;;
23743;SDS011;12052;53.478;10.182;2023-02-21T03:26:31;4.03;;;0.80;;
23743;SDS011;12052;53.478;10.182;2023-02-21T03:29:03;1.15;;;0.82;;
23743;SDS011;12052;53.478;10.182;2023-02-21T03:31:42;6.28;;;1.00;;
23743;SDS011;12052;53.478;10.182;2023-02-21T03:34:10;6.15;;;2.00;;
23743;SDS011;12052;53.478;10.182;2023-02-21T03:36:37;3.45;;;0.85;;
23743;SDS011;12052;53.478;10.182;2023-02-21T03:39:03;5.68;;;1.23;;
23743;SDS011;12052;53.478;10.182;2023-02-21T03:41:32;2.13;;;0.90;;
23743;SDS011;12052;53.478;10.182;2023-02-21T03:43:58;4.60;;;1.17;;
23743;SDS011;12052;53.478;10.182;2023-02-21T03:46:29;9.00;;;1.55;;
23743;SDS011;12052;53.478;10.182;2023-02-21T03:49:00;6.18;;;1.45;;
23743;SDS011;12052;53.478;10.182;2023-02-21T03:51:30;4.65;;;1.45;;
23743;SDS011;12052;53.478;10.182;2023-02-21T03:53:58;6.82;;;1.42;;
23743;SDS011;12052;53.478;10.182;2023-02-21T03:56:24;3.92;;;1.60;;
23743;SDS011;12052;53.478;10.182;2023-02-21T03:58:53;1.63;;;1.10;;
23743;SDS011;12052;53.478;10.182;2023-02-21T04:01:19;1.30;;;0.82;;
23743;SDS011;12052;53.478;10.182;2023-02-21T04:03:48;1.58;;;1.00;;
23743;SDS011;12052;53.478;10.182;2023-02-21T04:06:15;7.18;;;1.33;;
23743;SDS011;12052;53.478;10.182;2023-02-21T04:08:44;6.05;;;1.10;;
23743;SDS011;12052;53.478;10.182;2023-02-21T04:11:13;1.75;;;1.10;;
23743;SDS011;12052;53.478;10.182;2023-02-21T04:13:42;7.25;;;0.98;;
23743;SDS011;12052;53.478;10.182;2023-02-21T04:16:18;8.48;;;1.25;;
23743;SDS011;12052;53.478;10.182;2023-02-21T04:18:44;6.78;;;1.40;;
23743;SDS011;12052;53.478;10.182;2023-02-21T04:21:14;5.43;;;1.50;;
23743;SDS011;12052;53.478;10.182;2023-02-21T04:23:41;3.22;;;1.40;;
23743;SDS011;12052;53.478;10.182;2023-02-21T04:26:15;4.88;;;1.52;;
23743;SDS011;12052;53.478;10.182;2023-02-21T04:28:41;3.83;;;1.45;;
23743;SDS011;12052;53.478;10.182;2023-02-21T04:31:13;5.78;;;1.23;;
23743;SDS011;12052;53.478;10.182;2023-02-21T04:33:44;7.88;;;1.98;;
23743;SDS011;12052;53.478;10.182;2023-02-21T04:36:11;6.10;;;1.50;;
23743;SDS011;12052;53.478;10.182;2023-02-21T04:38:42;9.30;;;1.70;;
23743;SDS011;12052;53.478;10.182;2023-02-21T04:41:08;2.20;;;1.25;;
23743;SDS011;12052;53.478;10.182;2023-02-21T04:43:36;6.50;;;1.58;;
23743;SDS011;12052;53.478;10.182;2023-02-21T04:46:02;7.10;;;1.83;;
23743;SDS011;12052;53.478;10.182;2023-02-21T04:48:28;4.75;;;1.30;;
23743;SDS011;12052;53.478;10.182;2023-02-21T04:50:54;7.05;;;1.52;;
23743;SDS011;12052;53.478;10.182;2023-02-21T04:53:22;4.35;;;1.40;;
23743;SDS011;12052;53.478;10.182;2023-02-21T04:55:48;2.92;;;1.50;;
23743;SDS011;12052;53.478;10.182;2023-02-21T04:58:14;2.22;;;1.42;;
23743;SDS011;12052;53.478;10.182;2023-02-21T05:00:40;9.82;;;1.92;;
23743;SDS011;12052;53.478;10.182;2023-02-21T05:03:06;5.32;;;1.58;;
23743;SDS011;12052;53.478;10.182;2023-02-21T05:05:32;3.97;;;1.83;;
23743;SDS011;12052;53.478;10.182;2023-02-21T05:07:58;6.97;;;1.70;;
23743;SDS011;12052;53.478;10.182;2023-02-21T05:10:30;6.35;;;1.20;;
23743;SDS011;12052;53.478;10.182;2023-02-21T05:12:56;4.90;;;1.83;;
23743;SDS011;12052;53.478;10.182;2023-02-21T05:15:22;7.47;;;1.40;;
23743;SDS011;12052;53.478;10.182;2023-02-21T05:17:51;11.02;;;1.67;;
23743;SDS011;12052;53.478;10.182;2023-02-21T05:20:19;7.03;;;1.08;;
23743;SDS011;12052;53.478;10.182;2023-02-21T05:22:55;20.45;;;1.92;;
23743;SDS011;12052;53.478;10.182;2023-02-21T05:25:21;8.13;;;1.63;;
23743;SDS011;12052;53.478;10.182;2023-02-21T05:27:49;11.13;;;1.73;;
23743;SDS011;12052;53.478;10.182;2023-02-21T05:30:18;11.88;;;1.95;;
23743;SDS011;12052;53.478;10.182;2023-02-21T05:32:47;28.77;;;2.42;;
23743;SDS011;12052;53.478;10.182;2023-02-21T05:35:17;20.35;;;2.53;;
23743;SDS011;12052;53.478;10.182;2023-02-21T05:37:46;20.00;;;1.97;;
23743;SDS011;12052;53.478;10.182;2023-02-21T05:40:12;11.82;;;2.10;;
23743;SDS011;12052;53.478;10.182;2023-02-21T05:42:41;15.30;;;2.53;;
23743;SDS011;12052;53.478;10.182;2023-02-21T05:45:07;9.15;;;1.65;;
23743;SDS011;12052;53.478;10.182;2023-02-21T05:47:37;19.75;;;2.05;;
23743;SDS011;12052;53.478;10.182;2023-02-21T05:50:13;11.75;;;2.28;;
23743;SDS011;12052;53.478;10.182;2023-02-21T05:52:44;8.82;;;1.90;;
23743;SDS011;12052;53.478;10.182;2023-02-21T05:55:16;15.20;;;2.10;;
23743;SDS011;12052;53.478;10.182;2023-02-21T05:57:42;14.02;;;1.75;;
23743;SDS011;12052;53.478;10.182;2023-02-21T06:00:14;25.75;;;2.28;;
23743;SDS011;12052;53.478;10.182;2023-02-21T06:02:53;15.02;;;1.38;;
23743;SDS011;12052;53.478;10.182;2023-02-21T06:05:22;9.32;;;1.88;;
23743;SDS011;12052;53.478;10.182;2023-02-21T06:07:48;22.77;;;2.40;;
23743;SDS011;12052;53.478;10.182;2023-02-21T06:10:15;23.30;;;2.63;;
23743;SDS011;12052;53.478;10.182;2023-02-21T06:12:44;14.88;;;2.20;;
23743;SDS011;12052;53.478;10.182;2023-02-21T06:15:10;18.95;;;2.42;;
23743;SDS011;12052;53.478;10.182;2023-02-21T06:17:37;31.15;;;2.40;;
23743;SDS011;12052;53.478;10.182;2023-02-21T06:20:04;25.25;;;2.47;;
23743;SDS011;12052;53.478;10.182;2023-02-21T06:22:32;21.35;;;2.22;;
23743;SDS011;12052;53.478;10.182;2023-02-21T06:24:58;22.20;;;2.15;;
23743;SDS011;12052;53.478;10.182;2023-02-21T06:27:26;22.35;;;1.95;;
23743;SDS011;12052;53.478;10.182;2023-02-21T06:29:56;26.75;;;2.08;;
23743;SDS011;12052;53.478;10.182;2023-02-21T06:32:21;18.75;;;2.20;;
23743;SDS011;12052;53.478;10.182;2023-02-21T06:34:47;17.65;;;2.85;;
23743;SDS011;12052;53.478;10.182;2023-02-21T06:37:17;19.63;;;1.88;;
23743;SDS011;12052;53.478;10.182;2023-02-21T06:39:46;35.97;;;2.63;;
23743;SDS011;12052;53.478;10.182;2023-02-21T06:42:15;17.92;;;1.92;;
23743;SDS011;12052;53.478;10.182;2023-02-21T06:44:47;27.50;;;2.30;;
23743;SDS011;12052;53.478;10.182;2023-02-21T06:47:14;23.08;;;2.53;;
23743;SDS011;12052;53.478;10.182;2023-02-21T06:49:41;30.52;;;3.05;;
23743;SDS011;12052;53.478;10.182;2023-02-21T06:52:07;33.65;;;3.40;;
23743;SDS011;12052;53.478;10.182;2023-02-21T06:54:33;22.90;;;2.38;;
23743;SDS011;12052;53.478;10.182;2023-02-21T06:57:08;25.77;;;1.90;;
23743;SDS011;12052;53.478;10.182;2023-02-21T06:59:37;29.13;;;2.03;;
23743;SDS011;12052;53.478;10.182;2023-02-21T07:02:07;29.60;;;3.33;;
23743;SDS011;12052;53.478;10.182;2023-02-21T07:04:44;21.60;;;1.92;;
23743;SDS011;12052;53.478;10.182;2023-02-21T07:07:11;32.70;;;2.47;;
23743;SDS011;12052;53.478;10.182;2023-02-21T07:09:40;29.73;;;3.13;;
23743;SDS011;12052;53.478;10.182;2023-02-21T07:12:06;18.10;;;2.53;;
23743;SDS011;12052;53.478;10.182;2023-02-21T07:14:37;18.02;;;2.42;;
23743;SDS011;12052;53.478;10.182;2023-02-21T07:17:06;39.13;;;2.38;;
23743;SDS011;12052;53.478;10.182;2023-02-21T07:19:35;32.90;;;3.00;;
23743;SDS011;12052;53.478;10.182;2023-02-21T07:22:01;13.45;;;1.77;;
23743;SDS011;12052;53.478;10.182;2023-02-21T07:24:34;11.65;;;1.98;;
23743;SDS011;12052;53.478;10.182;2023-02-21T07:27:06;28.80;;;2.67;;
23743;SDS011;12052;53.478;10.182;2023-02-21T07:29:40;22.75;;;2.60;;
23743;SDS011;12052;53.478;10.182;2023-02-21T07:32:05;25.85;;;3.55;;
23743;SDS011;12052;53.478;10.182;2023-02-21T07:34:32;27.95;;;3.17;;
23743;SDS011;12052;53.478;10.182;2023-02-21T07:36:59;38.63;;;3.40;;
23743;SDS011;12052;53.478;10.182;2023-02-21T07:39:28;27.67;;;2.42;;
23743;SDS011;12052;53.478;10.182;2023-02-21T07:41:59;21.17;;;2.47;;
23743;SDS011;12052;53.478;10.182;2023-02-21T07:44:26;26.80;;;2.65;;
23743;SDS011;12052;53.478;10.182;2023-02-21T07:46:58;32.22;;;2.70;;
23743;SDS011;12052;53.478;10.182;2023-02-21T07:49:24;16.63;;;1.98;;
23743;SDS011;12052;53.478;10.182;2023-02-21T07:51:50;17.35;;;2.38;;
23743;SDS011;12052;53.478;10.182;2023-02-21T07:54:20;30.05;;;2.90;;
23743;SDS011;12052;53.478;10.182;2023-02-21T07:56:54;15.30;;;2.05;;
23743;SDS011;12052;53.478;10.182;2023-02-21T07:59:21;19.13;;;2.95;;
23743;SDS011;12052;53.478;10.182;2023-02-21T08:01:47;36.92;;;2.65;;
23743;SDS011;12052;53.478;10.182;2023-02-21T08:04:19;24.90;;;3.05;;
23743;SDS011;12052;53.478;10.182;2023-02-21T08:06:50;28.02;;;2.40;;
23743;SDS011;12052;53.478;10.182;2023-02-21T08:09:16;28.70;;;2.53;;
23743;SDS011;12052;53.478;10.182;2023-02-21T08:11:47;36.22;;;3.10;;
23743;SDS011;12052;53.478;10.182;2023-02-21T08:14:14;21.00;;;2.92;;
23743;SDS011;12052;53.478;10.182;2023-02-21T08:16:40;27.13;;;2.60;;
23743;SDS011;12052;53.478;10.182;2023-02-21T08:19:09;20.05;;;3.08;;
23743;SDS011;12052;53.478;10.182;2023-02-21T08:21:36;29.60;;;3.67;;
23743;SDS011;12052;53.478;10.182;2023-02-21T08:24:02;17.83;;;3.03;;
23743;SDS011;12052;53.478;10.182;2023-02-21T08:26:29;27.45;;;3.63;;
23743;SDS011;12052;53.478;10.182;2023-02-21T08:28:55;16.70;;;2.13;;
23743;SDS011;12052;53.478;10.182;2023-02-21T08:31:21;19.73;;;2.80;;
23743;SDS011;12052;53.478;10.182;2023-02-21T08:33:47;19.75;;;2.70;;
23743;SDS011;12052;53.478;10.182;2023-02-21T08:36:13;40.38;;;2.80;;
23743;SDS011;12052;53.478;10.182;2023-02-21T08:38:39;28.30;;;2.70;;
23743;SDS011;12052;53.478;10.182;2023-02-21T08:41:08;32.00;;;3.55;;
23743;SDS011;12052;53.478;10.182;2023-02-21T08:43:35;24.85;;;3.28;;
23743;SDS011;12052;53.478;10.182;2023-02-21T08:46:01;35.45;;;2.97;;
23743;SDS011;12052;53.478;10.182;2023-02-21T08:48:28;36.30;;;3.25;;
23743;SDS011;12052;53.478;10.182;2023-02-21T08:50:54;29.67;;;2.75;;
23743;SDS011;12052;53.478;10.182;2023-02-21T08:53:20;33.47;;;3.05;;
23743;SDS011;12052;53.478;10.182;2023-02-21T08:55:46;10.73;;;2.00;;
23743;SDS011;12052;53.478;10.182;2023-02-21T08:58:12;23.00;;;2.75;;
23743;SDS011;12052;53.478;10.182;2023-02-21T09:00:38;26.55;;;2.63;;
23743;SDS011;12052;53.478;10.182;2023-02-21T09:03:04;29.80;;;2.60;;
23743;SDS011;12052;53.478;10.182;2023-02-21T09:05:30;17.67;;;2.15;;
23743;SDS011;12052;53.478;10.182;2023-02-21T09:07:57;19.92;;;2.20;;
23743;SDS011;12052;53.478;10.182;2023-02-21T09:10:26;23.25;;;2.22;;
23743;SDS011;12052;53.478;10.182;2023-02-21T09:12:54;26.17;;;2.90;;
23743;SDS011;12052;53.478;10.182;2023-02-21T09:15:20;47.17;;;3.08;;
23743;SDS011;12052;53.478;10.182;2023-02-21T09:17:48;21.85;;;2.45;;
23743;SDS011;12052;53.478;10.182;2023-02-21T09:20:22;22.52;;;3.15;;
23743;SDS011;12052;53.478;10.182;2023-02-21T09:22:49;22.23;;;2.58;;
23743;SDS011;12052;53.478;10.182;2023-02-21T09:25:17;24.67;;;2.65;;
23743;SDS011;12052;53.478;10.182;2023-02-21T09:27:48;23.63;;;3.25;;
23743;SDS011;12052;53.478;10.182;2023-02-21T09:30:17;37.28;;;3.35;;
23743;SDS011;12052;53.478;10.182;2023-02-21T09:35:15;35.97;;;3.22;;
23743;SDS011;12052;53.478;10.182;2023-02-21T09:37:43;22.83;;;2.75;;
23743;SDS011;12052;53.478;10.182;2023-02-21T09:43:04;21.70;;;2.55;;
23743;SDS011;12052;53.478;10.182;2023-02-21T09:45:36;26.90;;;3.13;;
23743;SDS011;12052;53.478;10.182;2023-02-21T09:48:13;25.35;;;3.00;;
23743;SDS011;12052;53.478;10.182;2023-02-21T09:50:48;20.52;;;3.03;;
23743;SDS011;12052;53.478;10.182;2023-02-21T09:53:21;30.30;;;3.25;;
23743;SDS011;12052;53.478;10.182;2023-02-21T09:56:01;28.10;;;2.75;;
23743;SDS011;12052;53.478;10.182;2023-02-21T09:58:45;31.48;;;3.30;;
23743;SDS011;12052;53.478;10.182;2023-02-21T10:01:19;23.52;;;3.17;;
23743;SDS011;12052;53.478;10.182;2023-02-21T10:10:06;31.92;;;3.10;;
23743;SDS011;12052;53.478;10.182;2023-02-21T10:15:10;17.65;;;2.33;;
23743;SDS011;12052;53.478;10.182;2023-02-21T10:17:43;19.92;;;2.95;;
23743;SDS011;12052;53.478;10.182;2023-02-21T10:20:22;39.33;;;3.33;;
23743;SDS011;12052;53.478;10.182;2023-02-21T10:23:20;27.45;;;3.17;;
23743;SDS011;12052;53.478;10.182;2023-02-21T10:25:50;24.48;;;3.22;;
23743;SDS011;12052;53.478;10.182;2023-02-21T10:28:23;20.88;;;2.53;;
23743;SDS011;12052;53.478;10.182;2023-02-21T10:30:51;26.15;;;2.92;;
23743;SDS011;12052;53.478;10.182;2023-02-21T10:33:24;23.85;;;2.75;;
23743;SDS011;12052;53.478;10.182;2023-02-21T10:35:50;27.42;;;2.97;;
23743;SDS011;12052;53.478;10.182;2023-02-21T10:38:19;30.15;;;3.05;;
23743;SDS011;12052;53.478;10.182;2023-02-21T10:40:54;18.45;;;2.50;;
23743;SDS011;12052;53.478;10.182;2023-02-21T10:45:56;22.23;;;3.10;;
23743;SDS011;12052;53.478;10.182;2023-02-21T10:48:41;31.13;;;3.08;;
23743;SDS011;12052;53.478;10.182;2023-02-21T10:51:12;34.63;;;3.65;;
23743;SDS011;12052;53.478;10.182;2023-02-21T10:53:39;17.77;;;2.47;;
23743;SDS011;12052;53.478;10.182;2023-02-21T10:58:55;25.05;;;2.40;;
23743;SDS011;12052;53.478;10.182;2023-02-21T11:01:34;25.80;;;2.47;;
23743;SDS011;12052;53.478;10.182;2023-02-21T11:04:21;24.35;;;3.25;;
23743;SDS011;12052;53.478;10.182;2023-02-21T11:06:53;23.48;;;3.03;;
23743;SDS011;12052;53.478;10.182;2023-02-21T11:14:30;18.55;;;2.00;;
23743;SDS011;12052;53.478;10.182;2023-02-21T11:17:06;22.13;;;2.17;;
23743;SDS011;12052;53.478;10.182;2023-02-21T11:19:42;22.15;;;3.15;;
23743;SDS011;12052;53.478;10.182;2023-02-21T11:22:13;13.55;;;2.22;;
23743;SDS011;12052;53.478;10.182;2023-02-21T11:24:50;18.02;;;2.10;;
23743;SDS011;12052;53.478;10.182;2023-02-21T11:27:19;17.15;;;3.03;;
23743;SDS011;12052;53.478;10.182;2023-02-21T11:29:48;19.33;;;2.28;;
23743;SDS011;12052;53.478;10.182;2023-02-21T11:40:24;11.73;;;1.88;;
23743;SDS011;12052;53.478;10.182;2023-02-21T11:43:10;19.02;;;2.58;;
23743;SDS011;12052;53.478;10.182;2023-02-21T11:48:26;15.32;;;2.40;;
23743;SDS011;12052;53.478;10.182;2023-02-21T11:51:02;15.35;;;2.38;;
23743;SDS011;12052;53.478;10.182;2023-02-21T11:53:40;17.92;;;2.92;;
23743;SDS011;12052;53.478;10.182;2023-02-21T11:59:23;15.85;;;2.17;;
23743;SDS011;12052;53.478;10.182;2023-02-21T12:02:16;7.53;;;1.75;;
23743;SDS011;12052;53.478;10.182;2023-02-21T12:05:00;10.45;;;1.95;;
23743;SDS011;12052;53.478;10.182;2023-02-21T12:07:48;23.17;;;2.13;;
23743;SDS011;12052;53.478;10.182;2023-02-21T12:10:56;17.75;;;2.55;;
23743;SDS011;12052;53.478;10.182;2023-02-21T12:13:52;14.90;;;2.70;;
23743;SDS011;12052;53.478;10.182;2023-02-21T12:16:59;17.67;;;2.92;;
23743;SDS011;12052;53.478;10.182;2023-02-21T12:47:40;12.40;;;2.88;;
23743;SDS011;12052;53.478;10.182;2023-02-21T12:50:17;11.32;;;3.33;;
23743;SDS011;12052;53.478;10.182;2023-02-21T12:55:35;7.90;;;2.35;;
23743;SDS011;12052;53.478;10.182;2023-02-21T12:58:31;11.90;;;2.55;;
23743;SDS011;12052;53.478;10.182;2023-02-21T13:01:07;11.30;;;2.85;;
23743;SDS011;12052;53.478;10.182;2023-02-21T13:03:46;7.30;;;2.78;;
23743;SDS011;12052;53.478;10.182;2023-02-21T13:14:27;13.13;;;2.80;;
23743;SDS011;12052;53.478;10.182;2023-02-21T13:16:59;11.70;;;2.33;;
23743;SDS011;12052;53.478;10.182;2023-02-21T13:19:24;9.10;;;1.98;;
23743;SDS011;12052;53.478;10.182;2023-02-21T13:22:01;7.55;;;2.20;;
23743;SDS011;12052;53.478;10.182;2023-02-21T13:25:13;11.00;;;2.42;;
23743;SDS011;12052;53.478;10.182;2023-02-21T13:27:53;5.20;;;1.75;;
23743;SDS011;12052;53.478;10.182;2023-02-21T13:32:57;13.50;;;2.55;;
23743;SDS011;12052;53.478;10.182;2023-02-21T13:35:58;9.77;;;1.98;;
23743;SDS011;12052;53.478;10.182;2023-02-21T13:38:17;9.25;;;1.80;;
23743;SDS011;12052;53.478;10.182;2023-02-21T13:45:47;17.25;;;2.67;;
23743;SDS011;12052;53.478;10.182;2023-02-21T13:48:18;13.52;;;2.60;;
23743;SDS011;12052;53.478;10.182;2023-02-21T13:50:52;10.45;;;2.08;;
23743;SDS011;12052;53.478;10.182;2023-02-21T13:53:21;12.18;;;2.20;;
23743;SDS011;12052;53.478;10.182;2023-02-21T13:58:44;13.52;;;2.28;;
23743;SDS011;12052;53.478;10.182;2023-02-21T14:01:15;12.02;;;2.25;;
23743;SDS011;12052;53.478;10.182;2023-02-21T14:07:10;15.60;;;2.80;;
23743;SDS011;12052;53.478;10.182;2023-02-21T14:09:37;12.75;;;2.17;;
23743;SDS011;12052;53.478;10.182;2023-02-21T14:12:05;17.85;;;2.22;;
23743;SDS011;12052;53.478;10.182;2023-02-21T14:14:33;13.00;;;2.65;;
23743;SDS011;12052;53.478;10.182;2023-02-21T14:17:04;17.30;;;2.30;;
23743;SDS011;12052;53.478;10.182;2023-02-21T14:19:40;16.63;;;2.63;;
23743;SDS011;12052;53.478;10.182;2023-02-21T14:24:39;10.68;;;1.95;;
23743;SDS011;12052;53.478;10.182;2023-02-21T14:39:48;6.25;;;2.03;;
23743;SDS011;12052;53.478;10.182;2023-02-21T14:42:25;12.90;;;1.83;;
23743;SDS011;12052;53.478;10.182;2023-02-21T15:01:43;14.45;;;1.38;;
23743;SDS011;12052;53.478;10.182;2023-02-21T15:07:00;8.35;;;1.75;;
23743;SDS011;12052;53.478;10.182;2023-02-21T15:09:36;7.55;;;1.67;;
23743;SDS011;12052;53.478;10.182;2023-02-21T15:12:04;4.18;;;1.33;;
23743;SDS011;12052;53.478;10.182;2023-02-21T15:14:35;8.15;;;1.60;;
23743;SDS011;12052;53.478;10.182;2023-02-21T15:17:12;5.53;;;1.75;;
23743;SDS011;12052;53.478;10.182;2023-02-21T15:19:43;4.78;;;1.63;;
23743;SDS011;12052;53.478;10.182;2023-02-21T15:22:24;3.53;;;1.25;;
23743;SDS011;12052;53.478;10.182;2023-02-21T15:27:32;10.77;;;1.15;;
23743;SDS011;12052;53.478;10.182;2023-02-21T15:32:39;9.10;;;1.27;;
23743;SDS011;12052;53.478;10.182;2023-02-21T15:35:05;6.55;;;1.00;;
23743;SDS011;12052;53.478;10.182;2023-02-21T15:37:38;10.00;;;1.52;;
23743;SDS011;12052;53.478;10.182;2023-02-21T15:40:10;2.45;;;0.75;;
23743;SDS011;12052;53.478;10.182;2023-02-21T15:42:39;4.22;;;1.10;;
23743;SDS011;12052;53.478;10.182;2023-02-21T15:45:08;8.38;;;1.13;;
23743;SDS011;12052;53.478;10.182;2023-02-21T15:47:41;7.70;;;1.38;;
23743;SDS011;12052;53.478;10.182;2023-02-21T15:50:09;7.13;;;1.20;;
23743;SDS011;12052;53.478;10.182;2023-02-21T15:57:42;5.32;;;1.13;;
23743;SDS011;12052;53.478;10.182;2023-02-21T16:00:24;4.28;;;1.40;;
23743;SDS011;12052;53.478;10.182;2023-02-21T16:16:45;4.57;;;0.90;;
23743;SDS011;12052;53.478;10.182;2023-02-21T16:19:17;3.75;;;0.90;;
23743;SDS011;12052;53.478;10.182;2023-02-21T16:21:44;4.78;;;0.90;;
23743;SDS011;12052;53.478;10.182;2023-02-21T16:24:27;6.70;;;1.10;;
23743;SDS011;12052;53.478;10.182;2023-02-21T16:27:02;7.15;;;1.20;;
23743;SDS011;12052;53.478;10.182;2023-02-21T16:29:35;4.32;;;1.10;;
23743;SDS011;12052;53.478;10.182;2023-02-21T16:32:01;8.15;;;1.27;;
23743;SDS011;12052;53.478;10.182;2023-02-21T16:34:28;6.38;;;1.08;;
23743;SDS011;12052;53.478;10.182;2023-02-21T16:36:59;3.92;;;1.20;;
23743;SDS011;12052;53.478;10.182;2023-02-21T16:39:27;9.38;;;1.50;;
23743;SDS011;12052;53.478;10.182;2023-02-21T16:41:54;5.03;;;1.98;;
23743;SDS011;12052;53.478;10.182;2023-02-21T16:44:21;8.15;;;2.03;;
23743;SDS011;12052;53.478;10.182;2023-02-21T16:46:46;4.35;;;1.50;;
23743;SDS011;12052;53.478;10.182;2023-02-21T16:49:15;7.90;;;1.50;;
23743;SDS011;12052;53.478;10.182;2023-02-21T16:51:40;11.73;;;1.55;;
23743;SDS011;12052;53.478;10.182;2023-02-21T16:54:07;13.00;;;2.05;;
23743;SDS011;12052;53.478;10.182;2023-02-21T16:56:34;7.78;;;2.10;;
23743;SDS011;12052;53.478;10.182;2023-02-21T16:59:04;14.20;;;2.50;;
23743;SDS011;12052;53.478;10.182;2023-02-21T17:01:34;11.50;;;1.90;;
23743;SDS011;12052;53.478;10.182;2023-02-21T17:04:00;9.65;;;2.55;;
23743;SDS011;12052;53.478;10.182;2023-02-21T17:06:29;11.32;;;2.20;;
23743;SDS011;12052;53.478;10.182;2023-02-21T17:08:55;7.53;;;2.30;;
23743;SDS011;12052;53.478;10.182;2023-02-21T17:11:20;8.95;;;2.58;;
23743;SDS011;12052;53.478;10.182;2023-02-21T17:13:46;5.70;;;2.13;;
23743;SDS011;12052;53.478;10.182;2023-02-21T17:16:12;13.50;;;2.83;;
23743;SDS011;12052;53.478;10.182;2023-02-21T17:18:38;12.60;;;3.20;;
23743;SDS011;12052;53.478;10.182;2023-02-21T17:21:04;9.95;;;2.65;;
23743;SDS011;12052;53.478;10.182;2023-02-21T17:23:29;4.32;;;2.42;;
23743;SDS011;12052;53.478;10.182;2023-02-21T17:25:55;7.32;;;3.20;;
23743;SDS011;12052;53.478;10.182;2023-02-21T17:28:21;7.85;;;3.30;;
23743;SDS011;12052;53.478;10.182;2023-02-21T17:30:47;12.55;;;2.70;;
23743;SDS011;12052;53.478;10.182;2023-02-21T17:33:13;4.82;;;2.45;;
23743;SDS011;12052;53.478;10.182;2023-02-21T17:35:39;9.90;;;3.03;;
23743;SDS011;12052;53.478;10.182;2023-02-21T17:38:04;8.98;;;3.42;;
23743;SDS011;12052;53.478;10.182;2023-02-21T17:40:31;8.82;;;2.50;;
23743;SDS011;12052;53.478;10.182;2023-02-21T17:42:56;7.38;;;2.78;;
23743;SDS011;12052;53.478;10.182;2023-02-21T17:45:22;13.75;;;2.65;;
23743;SDS011;12052;53.478;10.182;2023-02-21T17:47:48;8.23;;;2.90;;
23743;SDS011;12052;53.478;10.182;2023-02-21T17:50:15;8.20;;;3.13;;
23743;SDS011;12052;53.478;10.182;2023-02-21T17:52:41;8.07;;;3.60;;
23743;SDS011;12052;53.478;10.182;2023-02-21T17:55:08;8.23;;;2.85;;